OOMS/MCT METAR and TAF weather

Enter ICAO airport designator
Station Type Date Time Source
OOMS METAR 2020/09/25 06:50 UTC NOAA

OOMS 250650Z 02007KT CAVOK 33/27 Q1006 NOSIG


Station Type Date Time Source
OOMS Decoded METAR 2020/09/25 06:50 UTC NOAA

Seeb, International Airport, Oman (OOMS) 23-35N 058-17E 17M
Sep 25, 2020 - 02:50 AM EDT / 2020.09.25 0650 UTC
Wind: from the NNE (020 degrees) at 8 MPH (7 KT):0
Visibility: greater than 7 mile(s):0
Temperature: 91 F (33 C)
Heat index: 109.0 F (42.8 C):1
Dew Point: 80 F (27 C)
Relative Humidity: 70%
Pressure (altimeter): 29.71 in. Hg (1006 hPa)
ob: OOMS 250650Z 02007KT CAVOK 33/27 Q1006 NOSIG
cycle: 7

Station Type Date Time Source
OOMS TAF 2020/09/25 06:03 UTC NOAA

TAF OOMS 250500Z 2506/2612 35012KT 8000 NSC
BECMG 2515/2517 25005KT
BECMG 2606/2608 01012KT

Example: see airport list